Capitol Logistics 254


TNCM
Princess Juliana International Airport
St. Maarten, SX
KMIA
Miami International Airport
Miami, US

Route Details

Aircraft Information
Primary: Boeing 767-300BDSF
Backup: Not Available
Route Data
Distance: 1064nm
Sched. Duration: 3h 35m
Avg. Duration: 2h 61m (-73m)
Times Flown: 8
Recm'd Route: PJM B520 STT RTE6 SJU ACONY Y308 FOWEE FLIPR6
Planned Altitude: 30,000ft
Origin Wx: TNCM 181600Z 08015KT 040V110 9999 FEW021 28/20 Q1020 NOSIG
Dest. Wx: KMIA 181553Z 10013KT 10SM BKN025 BKN040 28/19 A3018 RMK AO2 SLP220 T02780194
Notes:

Financial History
Total Freight: 757,291lbs
Average Load: 94,661lbs/flt
Fuel Used: 239,118lbs
Avg. Fuel Used: 29,890lbs/flt
Fuel Expense: $191,294
Avg. Fuel Expense: $23,912
Avg. Fuel Cost: $0.80/lbs
Total Gross Income: $968,759
Pilot Pay: $1,762
Total Expenses: $105,042
Total Revenue: $666,986
Average Revenue: $121,094.91